sensor_id;sensor_type;location;lat;lon;timestamp;P1;durP1;ratioP1;P2;durP2;ratioP2
71038;SDS011;58692;43.212;27.908;2022-11-04T00:01:42;39.65;;;21.38;;
71038;SDS011;58692;43.212;27.908;2022-11-04T00:04:09;36.60;;;20.90;;
71038;SDS011;58692;43.212;27.908;2022-11-04T00:06:36;41.53;;;19.90;;
71038;SDS011;58692;43.212;27.908;2022-11-04T00:09:03;31.80;;;18.65;;
71038;SDS011;58692;43.212;27.908;2022-11-04T00:11:30;38.58;;;19.27;;
71038;SDS011;58692;43.212;27.908;2022-11-04T00:14:11;35.42;;;18.60;;
71038;SDS011;58692;43.212;27.908;2022-11-04T00:16:38;32.90;;;17.43;;
71038;SDS011;58692;43.212;27.908;2022-11-04T00:19:18;33.10;;;17.67;;
71038;SDS011;58692;43.212;27.908;2022-11-04T00:21:44;33.92;;;18.17;;
71038;SDS011;58692;43.212;27.908;2022-11-04T00:24:25;28.60;;;15.63;;
71038;SDS011;58692;43.212;27.908;2022-11-04T00:27:07;32.40;;;15.95;;
71038;SDS011;58692;43.212;27.908;2022-11-04T00:29:49;31.50;;;15.52;;
71038;SDS011;58692;43.212;27.908;2022-11-04T00:32:14;29.20;;;15.60;;
71038;SDS011;58692;43.212;27.908;2022-11-04T00:34:55;30.40;;;16.10;;
71038;SDS011;58692;43.212;27.908;2022-11-04T00:37:21;32.83;;;16.33;;
71038;SDS011;58692;43.212;27.908;2022-11-04T00:39:46;32.10;;;15.93;;
71038;SDS011;58692;43.212;27.908;2022-11-04T00:42:12;29.87;;;15.73;;
71038;SDS011;58692;43.212;27.908;2022-11-04T00:44:37;31.10;;;16.70;;
71038;SDS011;58692;43.212;27.908;2022-11-04T00:47:03;32.70;;;18.15;;
71038;SDS011;58692;43.212;27.908;2022-11-04T00:49:29;33.67;;;18.40;;
71038;SDS011;58692;43.212;27.908;2022-11-04T00:51:54;31.13;;;18.07;;
71038;SDS011;58692;43.212;27.908;2022-11-04T00:54:20;30.87;;;17.50;;
71038;SDS011;58692;43.212;27.908;2022-11-04T00:56:45;34.03;;;17.35;;
71038;SDS011;58692;43.212;27.908;2022-11-04T00:59:12;32.53;;;16.67;;
71038;SDS011;58692;43.212;27.908;2022-11-04T01:01:38;32.20;;;16.77;;
71038;SDS011;58692;43.212;27.908;2022-11-04T01:04:04;30.63;;;16.17;;
71038;SDS011;58692;43.212;27.908;2022-11-04T01:06:29;29.87;;;15.57;;
71038;SDS011;58692;43.212;27.908;2022-11-04T01:08:55;28.63;;;15.73;;
71038;SDS011;58692;43.212;27.908;2022-11-04T01:11:23;28.63;;;15.15;;
71038;SDS011;58692;43.212;27.908;2022-11-04T01:13:49;29.77;;;15.30;;
71038;SDS011;58692;43.212;27.908;2022-11-04T01:16:15;30.27;;;15.73;;
71038;SDS011;58692;43.212;27.908;2022-11-04T01:18:42;30.13;;;16.23;;
71038;SDS011;58692;43.212;27.908;2022-11-04T01:21:09;30.83;;;15.37;;
71038;SDS011;58692;43.212;27.908;2022-11-04T01:23:36;32.75;;;15.60;;
71038;SDS011;58692;43.212;27.908;2022-11-04T01:26:04;30.10;;;15.32;;
71038;SDS011;58692;43.212;27.908;2022-11-04T01:28:32;32.47;;;15.52;;
71038;SDS011;58692;43.212;27.908;2022-11-04T01:30:58;29.63;;;16.10;;
71038;SDS011;58692;43.212;27.908;2022-11-04T01:33:23;32.50;;;16.27;;
71038;SDS011;58692;43.212;27.908;2022-11-04T01:35:49;25.53;;;14.07;;
71038;SDS011;58692;43.212;27.908;2022-11-04T01:38:15;28.33;;;14.82;;
71038;SDS011;58692;43.212;27.908;2022-11-04T01:40:41;29.00;;;14.93;;
71038;SDS011;58692;43.212;27.908;2022-11-04T01:43:11;29.10;;;15.30;;
71038;SDS011;58692;43.212;27.908;2022-11-04T01:45:40;29.73;;;15.05;;
71038;SDS011;58692;43.212;27.908;2022-11-04T01:48:13;33.33;;;17.33;;
71038;SDS011;58692;43.212;27.908;2022-11-04T01:50:45;32.33;;;17.60;;
71038;SDS011;58692;43.212;27.908;2022-11-04T01:53:17;29.58;;;14.80;;
71038;SDS011;58692;43.212;27.908;2022-11-04T01:55:50;30.35;;;13.60;;
71038;SDS011;58692;43.212;27.908;2022-11-04T01:58:20;29.08;;;13.00;;
71038;SDS011;58692;43.212;27.908;2022-11-04T02:00:49;25.85;;;12.98;;
71038;SDS011;58692;43.212;27.908;2022-11-04T02:03:15;28.47;;;13.73;;
71038;SDS011;58692;43.212;27.908;2022-11-04T02:05:44;31.83;;;18.00;;
71038;SDS011;58692;43.212;27.908;2022-11-04T02:08:10;41.83;;;25.52;;
71038;SDS011;58692;43.212;27.908;2022-11-04T02:10:38;64.05;;;36.65;;
71038;SDS011;58692;43.212;27.908;2022-11-04T02:13:06;62.92;;;37.92;;
71038;SDS011;58692;43.212;27.908;2022-11-04T02:21:12;53.75;;;31.83;;
71038;SDS011;58692;43.212;27.908;2022-11-04T02:29:53;51.53;;;30.17;;
71038;SDS011;58692;43.212;27.908;2022-11-04T02:32:35;52.00;;;30.05;;
71038;SDS011;58692;43.212;27.908;2022-11-04T02:35:09;51.42;;;30.65;;
71038;SDS011;58692;43.212;27.908;2022-11-04T02:40:38;39.72;;;22.98;;
71038;SDS011;58692;43.212;27.908;2022-11-04T02:43:15;35.70;;;19.13;;
71038;SDS011;58692;43.212;27.908;2022-11-04T02:45:51;32.03;;;18.92;;
71038;SDS011;58692;43.212;27.908;2022-11-04T02:48:38;41.00;;;22.85;;
71038;SDS011;58692;43.212;27.908;2022-11-04T02:51:08;38.35;;;21.42;;
71038;SDS011;58692;43.212;27.908;2022-11-04T02:53:45;43.95;;;22.60;;
71038;SDS011;58692;43.212;27.908;2022-11-04T02:56:14;34.93;;;20.97;;
71038;SDS011;58692;43.212;27.908;2022-11-04T02:58:43;35.95;;;20.02;;
71038;SDS011;58692;43.212;27.908;2022-11-04T03:01:13;38.60;;;21.40;;
71038;SDS011;58692;43.212;27.908;2022-11-04T03:03:44;35.72;;;21.23;;
71038;SDS011;58692;43.212;27.908;2022-11-04T03:06:13;34.40;;;21.20;;
71038;SDS011;58692;43.212;27.908;2022-11-04T03:08:44;33.60;;;19.67;;
71038;SDS011;58692;43.212;27.908;2022-11-04T03:11:14;34.40;;;19.00;;
71038;SDS011;58692;43.212;27.908;2022-11-04T03:13:45;30.35;;;18.55;;
71038;SDS011;58692;43.212;27.908;2022-11-04T03:16:19;34.65;;;19.00;;
71038;SDS011;58692;43.212;27.908;2022-11-04T03:21:21;30.30;;;17.47;;
71038;SDS011;58692;43.212;27.908;2022-11-04T03:23:49;33.72;;;17.02;;
71038;SDS011;58692;43.212;27.908;2022-11-04T03:26:24;33.13;;;15.93;;
71038;SDS011;58692;43.212;27.908;2022-11-04T03:29:03;33.93;;;16.43;;
71038;SDS011;58692;43.212;27.908;2022-11-04T03:34:08;30.80;;;15.63;;
71038;SDS011;58692;43.212;27.908;2022-11-04T03:36:34;35.47;;;17.30;;
71038;SDS011;58692;43.212;27.908;2022-11-04T03:38:59;38.13;;;21.13;;
71038;SDS011;58692;43.212;27.908;2022-11-04T03:41:27;65.50;;;40.17;;
71038;SDS011;58692;43.212;27.908;2022-11-04T03:43:57;79.15;;;43.90;;
71038;SDS011;58692;43.212;27.908;2022-11-04T03:46:23;72.13;;;41.63;;
71038;SDS011;58692;43.212;27.908;2022-11-04T03:48:50;66.93;;;40.67;;
71038;SDS011;58692;43.212;27.908;2022-11-04T03:51:17;67.63;;;39.65;;
71038;SDS011;58692;43.212;27.908;2022-11-04T03:53:42;71.97;;;40.50;;
71038;SDS011;58692;43.212;27.908;2022-11-04T03:59:06;62.22;;;35.13;;
71038;SDS011;58692;43.212;27.908;2022-11-04T04:01:45;59.42;;;34.72;;
71038;SDS011;58692;43.212;27.908;2022-11-04T04:07:00;60.03;;;32.60;;
71038;SDS011;58692;43.212;27.908;2022-11-04T04:09:36;54.67;;;31.15;;
71038;SDS011;58692;43.212;27.908;2022-11-04T04:12:15;51.22;;;30.00;;
71038;SDS011;58692;43.212;27.908;2022-11-04T04:15:02;45.08;;;26.30;;
71038;SDS011;58692;43.212;27.908;2022-11-04T04:17:34;46.83;;;25.77;;
71038;SDS011;58692;43.212;27.908;2022-11-04T04:22:34;43.50;;;23.60;;
71038;SDS011;58692;43.212;27.908;2022-11-04T04:25:06;42.90;;;24.50;;
71038;SDS011;58692;43.212;27.908;2022-11-04T04:27:49;43.58;;;22.67;;
71038;SDS011;58692;43.212;27.908;2022-11-04T04:30:16;41.63;;;22.50;;
71038;SDS011;58692;43.212;27.908;2022-11-04T04:32:43;42.83;;;21.45;;
71038;SDS011;58692;43.212;27.908;2022-11-04T04:35:11;45.05;;;23.08;;
71038;SDS011;58692;43.212;27.908;2022-11-04T04:37:55;45.60;;;23.92;;
71038;SDS011;58692;43.212;27.908;2022-11-04T04:40:45;48.10;;;24.67;;
71038;SDS011;58692;43.212;27.908;2022-11-04T04:43:33;48.40;;;25.25;;
71038;SDS011;58692;43.212;27.908;2022-11-04T04:46:15;72.45;;;36.03;;
71038;SDS011;58692;43.212;27.908;2022-11-04T04:48:40;85.73;;;42.40;;
71038;SDS011;58692;43.212;27.908;2022-11-04T04:51:06;74.90;;;41.22;;
71038;SDS011;58692;43.212;27.908;2022-11-04T04:53:32;67.20;;;36.17;;
71038;SDS011;58692;43.212;27.908;2022-11-04T04:55:57;80.72;;;41.67;;
71038;SDS011;58692;43.212;27.908;2022-11-04T04:58:23;70.50;;;38.73;;
71038;SDS011;58692;43.212;27.908;2022-11-04T05:00:49;74.82;;;40.38;;
71038;SDS011;58692;43.212;27.908;2022-11-04T05:03:14;62.80;;;37.87;;
71038;SDS011;58692;43.212;27.908;2022-11-04T05:05:40;66.23;;;37.37;;
71038;SDS011;58692;43.212;27.908;2022-11-04T05:08:06;55.72;;;30.77;;
71038;SDS011;58692;43.212;27.908;2022-11-04T05:10:32;61.25;;;30.38;;
71038;SDS011;58692;43.212;27.908;2022-11-04T05:12:58;55.80;;;31.43;;
71038;SDS011;58692;43.212;27.908;2022-11-04T05:15:41;48.67;;;26.58;;
71038;SDS011;58692;43.212;27.908;2022-11-04T05:18:07;46.83;;;26.35;;
71038;SDS011;58692;43.212;27.908;2022-11-04T05:20:34;52.42;;;27.67;;
71038;SDS011;58692;43.212;27.908;2022-11-04T05:23:05;49.10;;;27.80;;
71038;SDS011;58692;43.212;27.908;2022-11-04T05:25:32;51.20;;;26.77;;
71038;SDS011;58692;43.212;27.908;2022-11-04T05:28:14;43.58;;;26.00;;
71038;SDS011;58692;43.212;27.908;2022-11-04T05:30:50;51.00;;;26.55;;
71038;SDS011;58692;43.212;27.908;2022-11-04T05:33:18;50.55;;;28.67;;
71038;SDS011;58692;43.212;27.908;2022-11-04T05:35:51;49.77;;;28.40;;
71038;SDS011;58692;43.212;27.908;2022-11-04T05:38:19;44.85;;;25.92;;
71038;SDS011;58692;43.212;27.908;2022-11-04T05:41:05;46.38;;;25.42;;
71038;SDS011;58692;43.212;27.908;2022-11-04T05:43:38;47.85;;;26.55;;
71038;SDS011;58692;43.212;27.908;2022-11-04T05:46:05;53.97;;;27.13;;
71038;SDS011;58692;43.212;27.908;2022-11-04T05:48:33;25.85;;;14.13;;
71038;SDS011;58692;43.212;27.908;2022-11-04T05:50:58;42.93;;;23.60;;
71038;SDS011;58692;43.212;27.908;2022-11-04T05:53:27;44.10;;;22.85;;
71038;SDS011;58692;43.212;27.908;2022-11-04T05:55:53;29.35;;;15.25;;
71038;SDS011;58692;43.212;27.908;2022-11-04T05:58:24;49.17;;;20.27;;
71038;SDS011;58692;43.212;27.908;2022-11-04T06:01:09;49.97;;;23.53;;
71038;SDS011;58692;43.212;27.908;2022-11-04T06:04:12;39.63;;;19.92;;
71038;SDS011;58692;43.212;27.908;2022-11-04T06:06:40;53.47;;;26.33;;
71038;SDS011;58692;43.212;27.908;2022-11-04T06:09:06;52.33;;;26.38;;
71038;SDS011;58692;43.212;27.908;2022-11-04T06:11:47;57.47;;;27.63;;
71038;SDS011;58692;43.212;27.908;2022-11-04T06:17:17;54.15;;;26.30;;
71038;SDS011;58692;43.212;27.908;2022-11-04T06:19:48;53.60;;;25.75;;
71038;SDS011;58692;43.212;27.908;2022-11-04T06:22:19;44.77;;;24.03;;
71038;SDS011;58692;43.212;27.908;2022-11-04T06:24:44;26.95;;;15.80;;
71038;SDS011;58692;43.212;27.908;2022-11-04T06:27:11;53.70;;;23.73;;
71038;SDS011;58692;43.212;27.908;2022-11-04T06:29:44;24.33;;;12.68;;
71038;SDS011;58692;43.212;27.908;2022-11-04T06:32:13;23.15;;;13.23;;
71038;SDS011;58692;43.212;27.908;2022-11-04T06:34:41;26.10;;;12.73;;
71038;SDS011;58692;43.212;27.908;2022-11-04T06:37:27;19.80;;;11.67;;
71038;SDS011;58692;43.212;27.908;2022-11-04T06:39:56;26.02;;;13.23;;
71038;SDS011;58692;43.212;27.908;2022-11-04T06:42:21;23.85;;;12.88;;
71038;SDS011;58692;43.212;27.908;2022-11-04T06:47:58;18.20;;;10.63;;
71038;SDS011;58692;43.212;27.908;2022-11-04T06:50:30;19.88;;;10.93;;
71038;SDS011;58692;43.212;27.908;2022-11-04T06:52:56;17.58;;;10.48;;
71038;SDS011;58692;43.212;27.908;2022-11-04T06:55:31;17.77;;;10.27;;
71038;SDS011;58692;43.212;27.908;2022-11-04T06:57:57;17.00;;;10.07;;
71038;SDS011;58692;43.212;27.908;2022-11-04T07:00:22;17.70;;;10.37;;
71038;SDS011;58692;43.212;27.908;2022-11-04T07:02:51;22.13;;;10.80;;
71038;SDS011;58692;43.212;27.908;2022-11-04T07:05:17;19.25;;;9.02;;
71038;SDS011;58692;43.212;27.908;2022-11-04T07:07:43;18.37;;;10.57;;
71038;SDS011;58692;43.212;27.908;2022-11-04T07:10:08;18.27;;;10.57;;
71038;SDS011;58692;43.212;27.908;2022-11-04T07:12:34;16.00;;;9.27;;
71038;SDS011;58692;43.212;27.908;2022-11-04T07:15:00;17.58;;;9.65;;
71038;SDS011;58692;43.212;27.908;2022-11-04T07:17:26;19.60;;;9.88;;
71038;SDS011;58692;43.212;27.908;2022-11-04T07:19:51;16.70;;;9.20;;
71038;SDS011;58692;43.212;27.908;2022-11-04T07:22:24;17.77;;;9.32;;
71038;SDS011;58692;43.212;27.908;2022-11-04T07:24:50;16.17;;;9.63;;
71038;SDS011;58692;43.212;27.908;2022-11-04T07:27:15;16.02;;;8.98;;
71038;SDS011;58692;43.212;27.908;2022-11-04T07:29:47;21.27;;;9.63;;
71038;SDS011;58692;43.212;27.908;2022-11-04T07:32:12;18.95;;;9.40;;
71038;SDS011;58692;43.212;27.908;2022-11-04T07:34:38;17.10;;;9.03;;
71038;SDS011;58692;43.212;27.908;2022-11-04T07:37:03;15.73;;;9.50;;
71038;SDS011;58692;43.212;27.908;2022-11-04T07:39:29;15.53;;;9.00;;
71038;SDS011;58692;43.212;27.908;2022-11-04T07:44:45;15.40;;;8.57;;
71038;SDS011;58692;43.212;27.908;2022-11-04T07:47:12;15.63;;;9.17;;
71038;SDS011;58692;43.212;27.908;2022-11-04T07:49:41;17.20;;;9.23;;
71038;SDS011;58692;43.212;27.908;2022-11-04T07:52:06;16.30;;;9.35;;
71038;SDS011;58692;43.212;27.908;2022-11-04T07:54:32;16.40;;;7.87;;
71038;SDS011;58692;43.212;27.908;2022-11-04T07:56:58;18.83;;;10.18;;
71038;SDS011;58692;43.212;27.908;2022-11-04T07:59:24;18.13;;;9.10;;
71038;SDS011;58692;43.212;27.908;2022-11-04T08:01:52;14.60;;;8.67;;
71038;SDS011;58692;43.212;27.908;2022-11-04T08:04:18;15.98;;;8.75;;
71038;SDS011;58692;43.212;27.908;2022-11-04T08:06:44;16.93;;;8.63;;
71038;SDS011;58692;43.212;27.908;2022-11-04T08:09:12;17.35;;;9.30;;
71038;SDS011;58692;43.212;27.908;2022-11-04T08:11:38;15.13;;;8.05;;
71038;SDS011;58692;43.212;27.908;2022-11-04T08:14:08;16.00;;;7.60;;
71038;SDS011;58692;43.212;27.908;2022-11-04T08:16:34;16.48;;;9.63;;
71038;SDS011;58692;43.212;27.908;2022-11-04T08:19:00;14.80;;;7.30;;
71038;SDS011;58692;43.212;27.908;2022-11-04T08:21:28;14.20;;;7.57;;
71038;SDS011;58692;43.212;27.908;2022-11-04T08:23:55;16.48;;;8.07;;
71038;SDS011;58692;43.212;27.908;2022-11-04T08:26:21;16.00;;;8.25;;
71038;SDS011;58692;43.212;27.908;2022-11-04T08:28:49;12.75;;;7.35;;
71038;SDS011;58692;43.212;27.908;2022-11-04T08:31:22;13.23;;;7.00;;
71038;SDS011;58692;43.212;27.908;2022-11-04T08:33:49;14.13;;;7.57;;
71038;SDS011;58692;43.212;27.908;2022-11-04T08:36:23;15.85;;;7.95;;
71038;SDS011;58692;43.212;27.908;2022-11-04T08:38:51;13.00;;;7.32;;
71038;SDS011;58692;43.212;27.908;2022-11-04T08:41:19;10.63;;;6.35;;
71038;SDS011;58692;43.212;27.908;2022-11-04T08:43:46;13.65;;;6.95;;
71038;SDS011;58692;43.212;27.908;2022-11-04T08:46:12;12.73;;;6.37;;
71038;SDS011;58692;43.212;27.908;2022-11-04T08:48:39;13.70;;;7.10;;
71038;SDS011;58692;43.212;27.908;2022-11-04T08:51:09;12.57;;;6.97;;
71038;SDS011;58692;43.212;27.908;2022-11-04T08:54:08;14.82;;;6.93;;
71038;SDS011;58692;43.212;27.908;2022-11-04T08:56:37;15.00;;;6.82;;
71038;SDS011;58692;43.212;27.908;2022-11-04T08:59:04;13.67;;;6.73;;
71038;SDS011;58692;43.212;27.908;2022-11-04T09:01:33;15.35;;;7.18;;
71038;SDS011;58692;43.212;27.908;2022-11-04T09:04:00;14.70;;;6.82;;
71038;SDS011;58692;43.212;27.908;2022-11-04T09:06:27;12.77;;;6.47;;
71038;SDS011;58692;43.212;27.908;2022-11-04T09:08:55;13.13;;;6.57;;
71038;SDS011;58692;43.212;27.908;2022-11-04T09:11:30;17.00;;;7.07;;
71038;SDS011;58692;43.212;27.908;2022-11-04T09:14:06;12.70;;;6.53;;
71038;SDS011;58692;43.212;27.908;2022-11-04T09:16:33;13.15;;;6.63;;
71038;SDS011;58692;43.212;27.908;2022-11-04T09:19:00;12.70;;;6.10;;
71038;SDS011;58692;43.212;27.908;2022-11-04T09:21:27;14.35;;;6.85;;
71038;SDS011;58692;43.212;27.908;2022-11-04T09:23:55;16.02;;;6.40;;
71038;SDS011;58692;43.212;27.908;2022-11-04T09:26:21;13.18;;;6.78;;
71038;SDS011;58692;43.212;27.908;2022-11-04T09:28:51;12.53;;;6.17;;
71038;SDS011;58692;43.212;27.908;2022-11-04T09:31:19;13.75;;;6.90;;
71038;SDS011;58692;43.212;27.908;2022-11-04T09:33:45;14.48;;;6.40;;
71038;SDS011;58692;43.212;27.908;2022-11-04T09:36:11;12.40;;;6.40;;
71038;SDS011;58692;43.212;27.908;2022-11-04T09:38:38;12.90;;;6.13;;
71038;SDS011;58692;43.212;27.908;2022-11-04T09:41:10;13.93;;;6.78;;
71038;SDS011;58692;43.212;27.908;2022-11-04T09:46:35;16.35;;;6.88;;
71038;SDS011;58692;43.212;27.908;2022-11-04T09:49:02;11.03;;;6.03;;
71038;SDS011;58692;43.212;27.908;2022-11-04T09:51:33;14.43;;;6.93;;
71038;SDS011;58692;43.212;27.908;2022-11-04T09:54:04;14.27;;;6.75;;
71038;SDS011;58692;43.212;27.908;2022-11-04T09:56:42;13.52;;;6.82;;
71038;SDS011;58692;43.212;27.908;2022-11-04T09:59:14;14.88;;;7.25;;
71038;SDS011;58692;43.212;27.908;2022-11-04T10:01:48;13.23;;;7.40;;
71038;SDS011;58692;43.212;27.908;2022-11-04T10:07:18;15.43;;;7.18;;
71038;SDS011;58692;43.212;27.908;2022-11-04T10:09:52;16.90;;;7.72;;
71038;SDS011;58692;43.212;27.908;2022-11-04T10:18:22;12.32;;;6.68;;
71038;SDS011;58692;43.212;27.908;2022-11-04T10:30:17;17.27;;;7.37;;
71038;SDS011;58692;43.212;27.908;2022-11-04T10:32:51;13.57;;;7.57;;
71038;SDS011;58692;43.212;27.908;2022-11-04T10:35:36;16.25;;;7.90;;
71038;SDS011;58692;43.212;27.908;2022-11-04T10:38:14;15.13;;;7.78;;
71038;SDS011;58692;43.212;27.908;2022-11-04T10:40:44;16.60;;;8.20;;
71038;SDS011;58692;43.212;27.908;2022-11-04T10:43:35;19.53;;;8.70;;
71038;SDS011;58692;43.212;27.908;2022-11-04T10:48:49;15.40;;;7.70;;
71038;SDS011;58692;43.212;27.908;2022-11-04T10:51:21;15.70;;;7.78;;
71038;SDS011;58692;43.212;27.908;2022-11-04T10:53:50;13.20;;;7.28;;
71038;SDS011;58692;43.212;27.908;2022-11-04T10:56:34;16.20;;;8.63;;
71038;SDS011;58692;43.212;27.908;2022-11-04T10:59:14;14.85;;;7.20;;
71038;SDS011;58692;43.212;27.908;2022-11-04T11:01:58;14.60;;;7.45;;
71038;SDS011;58692;43.212;27.908;2022-11-04T11:04:30;13.23;;;7.03;;
71038;SDS011;58692;43.212;27.908;2022-11-04T11:07:00;15.43;;;8.52;;
71038;SDS011;58692;43.212;27.908;2022-11-04T11:09:29;14.30;;;7.70;;
71038;SDS011;58692;43.212;27.908;2022-11-04T11:12:02;14.43;;;7.63;;
71038;SDS011;58692;43.212;27.908;2022-11-04T11:14:37;17.30;;;7.53;;
71038;SDS011;58692;43.212;27.908;2022-11-04T11:17:18;15.10;;;8.25;;
71038;SDS011;58692;43.212;27.908;2022-11-04T11:22:52;16.47;;;8.20;;
71038;SDS011;58692;43.212;27.908;2022-11-04T11:28:09;16.23;;;8.30;;
71038;SDS011;58692;43.212;27.908;2022-11-04T11:34:13;15.85;;;7.78;;
71038;SDS011;58692;43.212;27.908;2022-11-04T11:36:45;14.73;;;7.70;;
71038;SDS011;58692;43.212;27.908;2022-11-04T11:44:23;16.17;;;8.20;;
71038;SDS011;58692;43.212;27.908;2022-11-04T11:46:52;15.52;;;8.85;;
71038;SDS011;58692;43.212;27.908;2022-11-04T11:49:27;13.43;;;7.93;;
71038;SDS011;58692;43.212;27.908;2022-11-04T11:54:57;14.65;;;8.48;;
71038;SDS011;58692;43.212;27.908;2022-11-04T11:57:43;15.00;;;7.72;;
71038;SDS011;58692;43.212;27.908;2022-11-04T12:00:14;14.38;;;8.35;;
71038;SDS011;58692;43.212;27.908;2022-11-04T12:02:52;16.20;;;8.20;;
71038;SDS011;58692;43.212;27.908;2022-11-04T12:05:44;16.23;;;7.63;;
71038;SDS011;58692;43.212;27.908;2022-11-04T12:11:36;17.48;;;8.35;;
71038;SDS011;58692;43.212;27.908;2022-11-04T12:14:24;16.02;;;7.57;;
71038;SDS011;58692;43.212;27.908;2022-11-04T12:17:10;15.43;;;8.37;;
71038;SDS011;58692;43.212;27.908;2022-11-04T12:20:21;17.88;;;7.55;;
71038;SDS011;58692;43.212;27.908;2022-11-04T12:25:53;19.00;;;8.38;;
71038;SDS011;58692;43.212;27.908;2022-11-04T12:28:36;20.77;;;8.45;;
71038;SDS011;58692;43.212;27.908;2022-11-04T12:31:36;14.93;;;8.23;;
71038;SDS011;58692;43.212;27.908;2022-11-04T12:40:26;18.08;;;8.43;;
71038;SDS011;58692;43.212;27.908;2022-11-04T12:43:25;18.45;;;8.32;;
71038;SDS011;58692;43.212;27.908;2022-11-04T12:46:26;15.00;;;7.40;;
71038;SDS011;58692;43.212;27.908;2022-11-04T12:56:46;16.27;;;7.40;;
71038;SDS011;58692;43.212;27.908;2022-11-04T13:02:22;17.13;;;7.28;;
71038;SDS011;58692;43.212;27.908;2022-11-04T13:05:22;18.65;;;7.95;;
71038;SDS011;58692;43.212;27.908;2022-11-04T13:11:02;19.85;;;8.00;;
71038;SDS011;58692;43.212;27.908;2022-11-04T13:13:48;16.40;;;7.50;;
71038;SDS011;58692;43.212;27.908;2022-11-04T13:16:39;15.73;;;7.60;;
71038;SDS011;58692;43.212;27.908;2022-11-04T13:19:20;14.88;;;7.43;;
71038;SDS011;58692;43.212;27.908;2022-11-04T13:21:57;15.98;;;7.13;;
71038;SDS011;58692;43.212;27.908;2022-11-04T13:24:31;17.38;;;7.47;;
71038;SDS011;58692;43.212;27.908;2022-11-04T13:27:18;18.33;;;8.20;;
71038;SDS011;58692;43.212;27.908;2022-11-04T13:29:58;13.98;;;7.32;;
71038;SDS011;58692;43.212;27.908;2022-11-04T13:41:41;16.57;;;8.17;;
71038;SDS011;58692;43.212;27.908;2022-11-04T13:44:29;16.38;;;7.90;;
71038;SDS011;58692;43.212;27.908;2022-11-04T13:47:03;14.93;;;7.93;;
71038;SDS011;58692;43.212;27.908;2022-11-04T13:49:57;19.20;;;8.52;;
71038;SDS011;58692;43.212;27.908;2022-11-04T13:52:31;17.88;;;7.97;;
71038;SDS011;58692;43.212;27.908;2022-11-04T13:55:01;21.53;;;7.40;;
71038;SDS011;58692;43.212;27.908;2022-11-04T13:57:31;17.17;;;8.55;;
71038;SDS011;58692;43.212;27.908;2022-11-04T14:00:18;15.20;;;6.88;;
71038;SDS011;58692;43.212;27.908;2022-11-04T14:02:56;17.65;;;7.80;;
71038;SDS011;58692;43.212;27.908;2022-11-04T14:08:13;19.67;;;8.50;;
71038;SDS011;58692;43.212;27.908;2022-11-04T14:18:56;16.45;;;8.45;;
71038;SDS011;58692;43.212;27.908;2022-11-04T14:21:26;20.60;;;9.20;;
71038;SDS011;58692;43.212;27.908;2022-11-04T14:26:26;20.92;;;9.77;;
71038;SDS011;58692;43.212;27.908;2022-11-04T14:29:16;19.95;;;9.95;;
71038;SDS011;58692;43.212;27.908;2022-11-04T14:38:40;23.20;;;10.43;;
71038;SDS011;58692;43.212;27.908;2022-11-04T14:41:28;18.63;;;9.27;;
71038;SDS011;58692;43.212;27.908;2022-11-04T14:44:18;21.85;;;9.80;;
71038;SDS011;58692;43.212;27.908;2022-11-04T14:46:46;21.95;;;11.50;;
71038;SDS011;58692;43.212;27.908;2022-11-04T14:51:56;19.17;;;9.73;;
71038;SDS011;58692;43.212;27.908;2022-11-04T14:54:28;20.88;;;10.38;;
71038;SDS011;58692;43.212;27.908;2022-11-04T14:57:13;18.70;;;10.55;;
71038;SDS011;58692;43.212;27.908;2022-11-04T14:59:48;20.42;;;9.15;;
71038;SDS011;58692;43.212;27.908;2022-11-04T15:02:19;22.27;;;9.10;;
71038;SDS011;58692;43.212;27.908;2022-11-04T15:04:59;20.48;;;9.35;;
71038;SDS011;58692;43.212;27.908;2022-11-04T15:07:34;16.75;;;8.15;;
71038;SDS011;58692;43.212;27.908;2022-11-04T15:12:56;23.05;;;8.70;;
71038;SDS011;58692;43.212;27.908;2022-11-04T15:15:29;21.17;;;8.23;;
71038;SDS011;58692;43.212;27.908;2022-11-04T15:18:04;17.70;;;8.15;;
71038;SDS011;58692;43.212;27.908;2022-11-04T15:20:32;19.80;;;8.27;;
71038;SDS011;58692;43.212;27.908;2022-11-04T15:23:02;14.57;;;7.93;;
71038;SDS011;58692;43.212;27.908;2022-11-04T15:25:34;14.52;;;7.65;;
71038;SDS011;58692;43.212;27.908;2022-11-04T15:28:14;17.70;;;8.60;;
71038;SDS011;58692;43.212;27.908;2022-11-04T15:30:43;19.73;;;9.00;;
71038;SDS011;58692;43.212;27.908;2022-11-04T15:33:24;17.08;;;8.73;;
71038;SDS011;58692;43.212;27.908;2022-11-04T15:36:03;16.42;;;8.02;;
71038;SDS011;58692;43.212;27.908;2022-11-04T15:38:29;16.50;;;8.48;;
71038;SDS011;58692;43.212;27.908;2022-11-04T15:40:59;15.27;;;7.70;;
71038;SDS011;58692;43.212;27.908;2022-11-04T15:43:45;18.17;;;7.95;;
71038;SDS011;58692;43.212;27.908;2022-11-04T15:46:15;18.23;;;8.10;;
71038;SDS011;58692;43.212;27.908;2022-11-04T15:48:57;17.15;;;8.20;;
71038;SDS011;58692;43.212;27.908;2022-11-04T15:51:56;17.40;;;7.80;;
71038;SDS011;58692;43.212;27.908;2022-11-04T15:54:23;18.47;;;8.60;;
71038;SDS011;58692;43.212;27.908;2022-11-04T15:56:58;15.45;;;7.63;;
71038;SDS011;58692;43.212;27.908;2022-11-04T15:59:28;16.95;;;7.93;;
71038;SDS011;58692;43.212;27.908;2022-11-04T16:01:57;16.33;;;7.43;;
71038;SDS011;58692;43.212;27.908;2022-11-04T16:04:25;17.80;;;7.93;;
71038;SDS011;58692;43.212;27.908;2022-11-04T16:09:43;16.73;;;7.88;;
71038;SDS011;58692;43.212;27.908;2022-11-04T16:14:47;20.73;;;8.55;;
71038;SDS011;58692;43.212;27.908;2022-11-04T16:17:26;19.88;;;7.80;;
71038;SDS011;58692;43.212;27.908;2022-11-04T16:19:55;15.00;;;7.70;;
71038;SDS011;58692;43.212;27.908;2022-11-04T16:22:26;18.00;;;8.18;;
71038;SDS011;58692;43.212;27.908;2022-11-04T16:27:45;14.93;;;7.05;;
71038;SDS011;58692;43.212;27.908;2022-11-04T16:35:17;20.17;;;9.20;;
71038;SDS011;58692;43.212;27.908;2022-11-04T16:37:49;15.57;;;8.18;;
71038;SDS011;58692;43.212;27.908;2022-11-04T16:40:15;22.02;;;8.52;;
71038;SDS011;58692;43.212;27.908;2022-11-04T16:42:41;17.70;;;8.00;;
71038;SDS011;58692;43.212;27.908;2022-11-04T16:45:16;18.85;;;7.75;;
71038;SDS011;58692;43.212;27.908;2022-11-04T16:50:30;17.73;;;9.43;;
71038;SDS011;58692;43.212;27.908;2022-11-04T16:53:00;19.77;;;9.27;;
71038;SDS011;58692;43.212;27.908;2022-11-04T16:55:27;18.43;;;8.10;;
71038;SDS011;58692;43.212;27.908;2022-11-04T16:57:57;15.95;;;7.63;;
71038;SDS011;58692;43.212;27.908;2022-11-04T17:00:38;17.60;;;7.45;;
71038;SDS011;58692;43.212;27.908;2022-11-04T17:03:15;15.23;;;8.00;;
71038;SDS011;58692;43.212;27.908;2022-11-04T17:05:46;17.63;;;7.72;;
71038;SDS011;58692;43.212;27.908;2022-11-04T17:08:30;18.10;;;8.77;;
71038;SDS011;58692;43.212;27.908;2022-11-04T17:10:58;18.42;;;8.70;;
71038;SDS011;58692;43.212;27.908;2022-11-04T17:13:24;19.17;;;9.18;;
71038;SDS011;58692;43.212;27.908;2022-11-04T17:15:49;18.80;;;8.67;;
71038;SDS011;58692;43.212;27.908;2022-11-04T17:18:15;15.83;;;8.30;;
71038;SDS011;58692;43.212;27.908;2022-11-04T17:20:43;20.35;;;8.35;;